Time;durP1;ratioP1;P1;durP2;ratioP2;P2;SDS_P1;SDS_P2;PMS_P1;PMS_P2;Temp;Humidity;BMP_temperature;BMP_pressure;BME280_temperature;BME280_humidity;BME280_pressure;Samples;Min_cycle;Max_cycle;Signal;HPM_P1;HPM_P2
2022/11/21 00:01:40;;;;;;;15.30;13.70;;;;;;;;;;4997034;28;20418;-90
2022/11/21 00:04:06;;;;;;;15.90;12.33;;;;;;;;;;4979724;28;20988;-87
2022/11/21 00:06:32;;;;;;;17.67;11.83;;;;;;;;;;4980353;28;20455;-89
2022/11/21 00:08:58;;;;;;;16.93;10.90;;;;;;;;;;4997314;28;20827;-90
2022/11/21 00:11:24;;;;;;;15.60;9.43;;;;;;;;;;4979766;28;20416;-89
2022/11/21 00:13:50;;;;;;;17.90;10.63;;;;;;;;;;4997150;28;20433;-90
2022/11/21 00:16:16;;;;;;;19.23;11.23;;;;;;;;;;4996816;28;20407;-90
2022/11/21 00:18:42;;;;;;;15.83;12.20;;;;;;;;;;4979788;28;20438;-89
2022/11/21 00:21:15;;;;;;;15.23;11.07;;;;;;;;;;4997357;28;20408;-89
2022/11/21 00:23:42;;;;;;;15.27;9.37;;;;;;;;;;4979577;28;20470;-89
2022/11/21 00:26:09;;;;;;;15.33;10.77;;;;;;;;;;4997072;28;20502;-88
2022/11/21 00:28:35;;;;;;;14.13;9.97;;;;;;;;;;4997112;28;20910;-89
2022/11/21 00:31:01;;;;;;;16.13;8.93;;;;;;;;;;4996799;28;20416;-87
2022/11/21 00:33:27;;;;;;;15.70;9.90;;;;;;;;;;4979514;28;20423;-88
2022/11/21 00:35:53;;;;;;;17.20;10.93;;;;;;;;;;4996874;28;20463;-88
2022/11/21 00:38:19;;;;;;;13.03;9.77;;;;;;;;;;4996942;28;20415;-88
2022/11/21 00:40:45;;;;;;;14.20;9.70;;;;;;;;;;4979260;28;20491;-88
2022/11/21 00:43:11;;;;;;;18.10;9.93;;;;;;;;;;4996810;28;20937;-90
2022/11/21 00:45:37;;;;;;;16.40;10.47;;;;;;;;;;4978726;28;20921;-90
2022/11/21 00:48:03;;;;;;;14.47;9.53;;;;;;;;;;4996530;28;20415;-90
2022/11/21 00:50:29;;;;;;;17.70;11.37;;;;;;;;;;5000326;28;20998;-91
2022/11/21 00:52:56;;;;;;;15.17;10.73;;;;;;;;;;4998830;28;20439;-81
2022/11/21 00:55:23;;;;;;;15.67;11.70;;;;;;;;;;4999428;28;20433;-91
2022/11/21 00:57:49;;;;;;;14.07;10.00;;;;;;;;;;4998898;28;20416;-90
2022/11/21 01:00:15;;;;;;;16.73;11.53;;;;;;;;;;4996415;28;20415;-87
2022/11/21 01:02:41;;;;;;;16.20;9.80;;;;;;;;;;4977038;28;21268;-84
2022/11/21 01:05:07;;;;;;;18.70;11.67;;;;;;;;;;4995322;28;20426;-84
2022/11/21 01:07:33;;;;;;;17.43;11.43;;;;;;;;;;4995193;28;20460;-83
2022/11/21 01:09:59;;;;;;;17.23;12.13;;;;;;;;;;4994848;28;20415;-82
2022/11/21 01:12:25;;;;;;;27.70;12.87;;;;;;;;;;4994800;28;20470;-82
2022/11/21 01:14:51;;;;;;;13.33;9.63;;;;;;;;;;4977329;28;20447;-82
2022/11/21 01:17:17;;;;;;;16.40;11.40;;;;;;;;;;4994419;28;20756;-83
2022/11/21 01:19:42;;;;;;;19.17;12.07;;;;;;;;;;5003390;28;20429;-82
2022/11/21 01:22:08;;;;;;;16.17;11.20;;;;;;;;;;4996679;28;20432;-82
2022/11/21 01:24:34;;;;;;;15.43;10.03;;;;;;;;;;5013969;28;20570;-82
2022/11/21 01:27:00;;;;;;;16.27;11.70;;;;;;;;;;5014749;28;20514;-82
2022/11/21 01:29:27;;;;;;;13.20;9.60;;;;;;;;;;4997115;28;20836;-81
2022/11/21 01:31:53;;;;;;;21.00;10.87;;;;;;;;;;5013684;28;20935;-82
2022/11/21 01:34:19;;;;;;;16.83;10.90;;;;;;;;;;4996266;28;20418;-83
2022/11/21 01:36:45;;;;;;;23.17;13.43;;;;;;;;;;5014325;28;20419;-82
2022/11/21 01:39:11;;;;;;;12.27;10.40;;;;;;;;;;5013733;28;20448;-82
2022/11/21 01:41:39;;;;;;;18.50;10.63;;;;;;;;;;5013926;28;20421;-82
2022/11/21 01:44:20;;;;;;;16.67;13.23;;;;;;;;;;4996071;28;20981;-82
2022/11/21 01:46:46;;;;;;;20.87;12.80;;;;;;;;;;5013344;28;20498;-81
2022/11/21 01:49:32;;;;;;;17.27;13.07;;;;;;;;;;4996109;28;20418;-81
2022/11/21 01:52:01;;;;;;;20.20;11.83;;;;;;;;;;5013427;28;20916;-82
2022/11/21 01:54:27;;;;;;;27.53;13.60;;;;;;;;;;5013475;28;20410;-82
2022/11/21 01:56:58;;;;;;;18.87;14.57;;;;;;;;;;5013571;28;20415;-82
2022/11/21 01:59:27;;;;;;;24.53;13.50;;;;;;;;;;5013537;28;20904;-82
2022/11/21 02:01:53;;;;;;;21.97;14.90;;;;;;;;;;5012917;28;20417;-82
2022/11/21 02:04:20;;;;;;;19.03;11.60;;;;;;;;;;5013444;28;20473;-84
2022/11/21 02:06:46;;;;;;;19.73;12.20;;;;;;;;;;5013405;28;20420;-82
2022/11/21 02:09:12;;;;;;;22.37;14.27;;;;;;;;;;5013596;28;20902;-82
2022/11/21 02:11:47;;;;;;;26.03;12.73;;;;;;;;;;5013430;28;20414;-82
2022/11/21 02:14:13;;;;;;;25.93;13.23;;;;;;;;;;5012542;28;20417;-82
2022/11/21 02:16:39;;;;;;;28.23;14.50;;;;;;;;;;5013008;28;20425;-82
2022/11/21 02:19:07;;;;;;;27.07;14.50;;;;;;;;;;5013258;28;20413;-82
2022/11/21 02:21:51;;;;;;;20.37;13.60;;;;;;;;;;5013350;28;20511;-82
2022/11/21 02:24:28;;;;;;;24.40;12.77;;;;;;;;;;5013236;28;20469;-82
2022/11/21 02:26:54;;;;;;;22.57;14.07;;;;;;;;;;5013166;28;20412;-81
2022/11/21 02:29:20;;;;;;;20.23;13.37;;;;;;;;;;5013358;28;20479;-83
2022/11/21 02:31:46;;;;;;;20.33;12.87;;;;;;;;;;5013186;28;20414;-83
2022/11/21 02:34:11;;;;;;;20.97;13.70;;;;;;;;;;5013761;28;20420;-82
2022/11/21 02:36:45;;;;;;;23.07;15.43;;;;;;;;;;5013800;28;20412;-82
2022/11/21 02:39:14;;;;;;;19.87;12.33;;;;;;;;;;5012870;28;20903;-81
2022/11/21 02:41:45;;;;;;;21.83;14.83;;;;;;;;;;5013126;28;20466;-82
2022/11/21 02:44:40;;;;;;;26.83;14.67;;;;;;;;;;5012966;28;20474;-81
2022/11/21 02:47:06;;;;;;;16.43;10.40;;;;;;;;;;4991733;28;20834;-82
2022/11/21 02:49:55;;;;;;;31.83;14.23;;;;;;;;;;5013032;28;20416;-85
2022/11/21 02:52:21;;;;;;;28.80;12.70;;;;;;;;;;5000374;28;20432;-81
2022/11/21 02:54:47;;;;;;;22.90;14.33;;;;;;;;;;5012904;28;20537;-82
2022/11/21 02:57:13;;;;;;;24.23;15.67;;;;;;;;;;5012831;28;20453;-81
2022/11/21 02:59:39;;;;;;;24.27;12.73;;;;;;;;;;5012768;28;20418;-82
2022/11/21 03:02:05;;;;;;;29.93;15.20;;;;;;;;;;5012527;28;20485;-82
2022/11/21 03:04:30;;;;;;;26.73;14.03;;;;;;;;;;5012855;28;20470;-82
2022/11/21 03:06:56;;;;;;;22.03;13.67;;;;;;;;;;5012925;28;20464;-82
2022/11/21 03:09:22;;;;;;;19.40;12.57;;;;;;;;;;5012828;28;20920;-81
2022/11/21 03:11:48;;;;;;;24.00;12.67;;;;;;;;;;5012867;28;20422;-84
2022/11/21 03:14:14;;;;;;;22.90;11.90;;;;;;;;;;5012685;28;20527;-83
2022/11/21 03:16:40;;;;;;;24.73;15.07;;;;;;;;;;5012376;28;20468;-83
2022/11/21 03:19:06;;;;;;;16.93;12.50;;;;;;;;;;4995252;28;20418;-82
2022/11/21 03:21:32;;;;;;;21.47;12.70;;;;;;;;;;5013014;28;20410;-82
2022/11/21 03:23:58;;;;;;;29.77;12.63;;;;;;;;;;5012873;28;20470;-86
2022/11/21 03:26:23;;;;;;;27.27;14.53;;;;;;;;;;5016302;28;20414;-82
2022/11/21 03:28:49;;;;;;;18.90;13.47;;;;;;;;;;5016305;28;20415;-82
2022/11/21 03:31:15;;;;;;;36.70;15.83;;;;;;;;;;5015919;28;20402;-82
2022/11/21 03:33:41;;;;;;;28.17;10.80;;;;;;;;;;5016268;28;20407;-82
2022/11/21 03:36:07;;;;;;;20.47;12.47;;;;;;;;;;4998606;28;20426;-82
2022/11/21 03:38:33;;;;;;;36.33;13.30;;;;;;;;;;5016209;28;20421;-82
2022/11/21 03:41:03;;;;;;;36.70;14.13;;;;;;;;;;5016081;28;20523;-82
2022/11/21 03:43:29;;;;;;;18.50;12.50;;;;;;;;;;5016118;28;20572;-82
2022/11/21 03:45:55;;;;;;;30.67;13.73;;;;;;;;;;5016936;28;20410;-89
2022/11/21 03:48:21;;;;;;;22.97;11.67;;;;;;;;;;5016153;28;20446;-82
2022/11/21 03:50:47;;;;;;;34.67;12.97;;;;;;;;;;5015819;28;20945;-81
2022/11/21 03:53:13;;;;;;;32.27;13.00;;;;;;;;;;5016019;28;20442;-83
2022/11/21 03:55:38;;;;;;;23.00;10.83;;;;;;;;;;4998166;28;20421;-81
2022/11/21 03:58:04;;;;;;;18.60;11.97;;;;;;;;;;5015698;28;20414;-82
2022/11/21 04:00:30;;;;;;;19.13;11.03;;;;;;;;;;5015303;28;20433;-82
2022/11/21 04:02:56;;;;;;;24.37;10.37;;;;;;;;;;5015637;28;20828;-81
2022/11/21 04:05:22;;;;;;;24.57;11.47;;;;;;;;;;5015592;28;21460;-82
2022/11/21 04:07:48;;;;;;;17.30;10.70;;;;;;;;;;5015558;28;20423;-81
2022/11/21 04:10:14;;;;;;;18.47;10.50;;;;;;;;;;5015634;28;20789;-82
2022/11/21 04:12:40;;;;;;;21.30;12.70;;;;;;;;;;5015820;28;20406;-82
2022/11/21 04:15:06;;;;;;;21.23;9.80;;;;;;;;;;5015466;28;20414;-81
2022/11/21 04:17:32;;;;;;;24.20;11.33;;;;;;;;;;5015076;28;20497;-83
2022/11/21 04:19:58;;;;;;;26.50;11.57;;;;;;;;;;5015363;28;21001;-82
2022/11/21 04:22:24;;;;;;;22.63;10.27;;;;;;;;;;5015182;28;20918;-82
2022/11/21 04:24:49;;;;;;;23.73;10.87;;;;;;;;;;5015170;28;20443;-83
2022/11/21 04:27:15;;;;;;;20.57;9.90;;;;;;;;;;5015175;28;20441;-81
2022/11/21 04:29:41;;;;;;;16.70;8.83;;;;;;;;;;5015153;28;20416;-82
2022/11/21 04:32:07;;;;;;;31.43;12.10;;;;;;;;;;4997088;28;20422;-82
2022/11/21 04:34:33;;;;;;;22.20;11.50;;;;;;;;;;5015045;28;20414;-82
2022/11/21 04:36:59;;;;;;;23.67;10.27;;;;;;;;;;4996728;28;20954;-83
2022/11/21 04:39:25;;;;;;;23.87;11.10;;;;;;;;;;5014961;28;20470;-86
2022/11/21 04:41:51;;;;;;;18.93;10.47;;;;;;;;;;4997602;28;20440;-87
2022/11/21 04:44:17;;;;;;;21.63;11.80;;;;;;;;;;4997324;28;20513;-83
2022/11/21 04:46:43;;;;;;;21.17;11.20;;;;;;;;;;5014531;28;20516;-82
2022/11/21 04:49:09;;;;;;;17.63;9.63;;;;;;;;;;4997532;28;20420;-87
2022/11/21 04:51:34;;;;;;;16.27;10.20;;;;;;;;;;4997311;28;20413;-82
2022/11/21 04:54:00;;;;;;;27.20;11.07;;;;;;;;;;4997312;28;20462;-86
2022/11/21 04:56:26;;;;;;;21.07;10.80;;;;;;;;;;5014789;28;20415;-82
2022/11/21 04:58:52;;;;;;;21.03;11.20;;;;;;;;;;5014332;28;20422;-82
2022/11/21 05:01:18;;;;;;;18.37;10.30;;;;;;;;;;5014545;28;20435;-84
2022/11/21 05:03:44;;;;;;;21.57;11.33;;;;;;;;;;5015045;28;20481;-88
2022/11/21 05:06:10;;;;;;;21.00;9.60;;;;;;;;;;5015118;28;20437;-86
2022/11/21 05:08:36;;;;;;;22.10;13.00;;;;;;;;;;5015204;28;20453;-86
2022/11/21 05:13:46;;;;;;;23.93;10.53;;;;;;;;;;5015212;28;20409;-86
2022/11/21 05:16:12;;;;;;;18.60;10.40;;;;;;;;;;4997136;28;20415;-82
2022/11/21 05:18:38;;;;;;;20.60;12.20;;;;;;;;;;5014491;28;20414;-83
2022/11/21 05:21:04;;;;;;;17.17;10.87;;;;;;;;;;5014503;28;20777;-85
2022/11/21 05:23:30;;;;;;;18.50;10.10;;;;;;;;;;5015016;28;20473;-85
2022/11/21 05:25:56;;;;;;;17.80;9.93;;;;;;;;;;5014905;28;20408;-84
2022/11/21 05:28:22;;;;;;;20.77;11.30;;;;;;;;;;5015017;28;20415;-87
2022/11/21 05:30:48;;;;;;;16.30;10.40;;;;;;;;;;5014579;28;20464;-89
2022/11/21 05:33:14;;;;;;;24.07;12.87;;;;;;;;;;5015070;28;20417;-87
2022/11/21 05:35:39;;;;;;;17.23;11.67;;;;;;;;;;5014868;28;20434;-84
2022/11/21 05:38:05;;;;;;;18.63;10.40;;;;;;;;;;4997395;28;20925;-87
2022/11/21 05:40:31;;;;;;;17.43;10.80;;;;;;;;;;5014513;28;20552;-86
2022/11/21 05:45:42;;;;;;;14.47;9.57;;;;;;;;;;5014348;28;20429;-83
2022/11/21 05:48:08;;;;;;;21.07;11.30;;;;;;;;;;5014245;28;20408;-84
2022/11/21 05:50:34;;;;;;;14.27;9.57;;;;;;;;;;5014364;28;20486;-82
2022/11/21 05:53:02;;;;;;;19.07;11.03;;;;;;;;;;5014160;28;20421;-83
2022/11/21 05:55:28;;;;;;;20.57;11.10;;;;;;;;;;5014096;28;20415;-83
2022/11/21 05:57:54;;;;;;;22.93;12.47;;;;;;;;;;5014186;28;20421;-86
2022/11/21 06:00:20;;;;;;;20.10;11.83;;;;;;;;;;5013950;28;20916;-83
2022/11/21 06:05:31;;;;;;;16.33;10.63;;;;;;;;;;5013628;28;20405;-81
2022/11/21 06:07:57;;;;;;;18.93;11.00;;;;;;;;;;5013917;28;20403;-82
2022/11/21 06:10:23;;;;;;;19.70;11.00;;;;;;;;;;5013719;28;20409;-81
2022/11/21 06:12:49;;;;;;;27.30;11.80;;;;;;;;;;5013689;28;20406;-82
2022/11/21 06:15:15;;;;;;;23.43;11.47;;;;;;;;;;5013136;28;20500;-82
2022/11/21 06:17:41;;;;;;;47.60;11.67;;;;;;;;;;5013720;28;20494;-83
2022/11/21 06:20:08;;;;;;;19.20;10.80;;;;;;;;;;4995948;28;20801;-83
2022/11/21 06:22:33;;;;;;;19.70;10.37;;;;;;;;;;4995808;28;20569;-83
2022/11/21 06:24:59;;;;;;;32.13;11.90;;;;;;;;;;5013519;28;20505;-83
2022/11/21 06:27:25;;;;;;;36.43;13.03;;;;;;;;;;5013273;28;21290;-84
2022/11/21 06:29:51;;;;;;;19.33;11.20;;;;;;;;;;4995773;28;20916;-83
2022/11/21 06:32:17;;;;;;;15.10;8.57;;;;;;;;;;5013560;28;20958;-84
2022/11/21 06:34:43;;;;;;;31.67;12.27;;;;;;;;;;5013839;28;20907;-85
2022/11/21 06:37:09;;;;;;;22.13;11.33;;;;;;;;;;4996178;28;20938;-84
2022/11/21 06:39:35;;;;;;;20.97;11.63;;;;;;;;;;5012357;28;20532;-83
2022/11/21 06:42:01;;;;;;;30.37;10.10;;;;;;;;;;5012291;28;20806;-83
2022/11/21 06:44:27;;;;;;;15.30;8.93;;;;;;;;;;4995736;28;20473;-83
2022/11/21 06:46:53;;;;;;;21.27;8.73;;;;;;;;;;5012907;28;20489;-83
2022/11/21 06:49:21;;;;;;;19.20;7.93;;;;;;;;;;4994992;28;20996;-84
2022/11/21 06:51:47;;;;;;;17.70;11.00;;;;;;;;;;4995949;28;20795;-83
2022/11/21 06:54:13;;;;;;;32.03;10.53;;;;;;;;;;4995922;28;21401;-83
2022/11/21 06:56:39;;;;;;;12.87;8.67;;;;;;;;;;5013432;28;20394;-82
2022/11/21 06:59:05;;;;;;;17.40;9.27;;;;;;;;;;5013677;28;20413;-86
2022/11/21 07:01:31;;;;;;;12.30;7.27;;;;;;;;;;5000640;28;20483;-83
2022/11/21 07:03:57;;;;;;;13.60;8.03;;;;;;;;;;5018705;28;20556;-88
2022/11/21 07:06:23;;;;;;;19.43;12.07;;;;;;;;;;5018001;28;20500;-87
2022/11/21 07:08:52;;;;;;;16.17;8.13;;;;;;;;;;5017788;28;20415;-88
2022/11/21 07:11:21;;;;;;;13.90;9.37;;;;;;;;;;5017780;28;20402;-83
2022/11/21 07:13:47;;;;;;;16.10;7.70;;;;;;;;;;5017455;28;20421;-87
2022/11/21 07:16:13;;;;;;;13.70;9.17;;;;;;;;;;5017401;28;20755;-87
2022/11/21 07:18:39;;;;;;;19.07;11.10;;;;;;;;;;5018068;28;20406;-88
2022/11/21 07:21:06;;;;;;;12.33;7.77;;;;;;;;;;5000219;28;20412;-91
2022/11/21 07:23:32;;;;;;;16.67;8.40;;;;;;;;;;5017493;28;20476;-90
2022/11/21 07:26:02;;;;;;;13.90;7.40;;;;;;;;;;5017765;28;20452;-87
2022/11/21 07:28:28;;;;;;;13.40;7.80;;;;;;;;;;5017514;28;20418;-90
2022/11/21 07:30:58;;;;;;;16.33;9.53;;;;;;;;;;5017214;28;20409;-86
2022/11/21 07:33:24;;;;;;;9.87;6.90;;;;;;;;;;5017471;28;20436;-89
2022/11/21 07:35:50;;;;;;;12.57;8.27;;;;;;;;;;5017108;28;20416;-88
2022/11/21 07:38:16;;;;;;;15.20;9.87;;;;;;;;;;5017446;28;20409;-85
2022/11/21 07:40:43;;;;;;;18.20;10.37;;;;;;;;;;5017222;28;20478;-89
2022/11/21 07:43:10;;;;;;;13.80;9.37;;;;;;;;;;5017304;28;20465;-83
2022/11/21 07:45:35;;;;;;;15.53;8.00;;;;;;;;;;5017069;28;20439;-90
2022/11/21 07:48:02;;;;;;;21.80;10.70;;;;;;;;;;5017290;28;20413;-88
2022/11/21 07:50:28;;;;;;;15.10;8.43;;;;;;;;;;5017317;28;20428;-91
2022/11/21 07:52:58;;;;;;;16.33;8.77;;;;;;;;;;5017019;28;20424;-88
2022/11/21 07:55:24;;;;;;;11.67;5.73;;;;;;;;;;5017082;28;20417;-87
2022/11/21 07:58:00;;;;;;;13.30;7.93;;;;;;;;;;5016947;28;20409;-89
2022/11/21 08:00:27;;;;;;;17.23;8.87;;;;;;;;;;5016858;28;20428;-90
2022/11/21 08:02:53;;;;;;;16.50;8.10;;;;;;;;;;5016964;28;20491;-89
2022/11/21 08:05:19;;;;;;;12.77;8.80;;;;;;;;;;5016532;28;20873;-88
2022/11/21 08:07:45;;;;;;;17.37;9.20;;;;;;;;;;5016774;28;20508;-90
2022/11/21 08:10:11;;;;;;;15.30;9.17;;;;;;;;;;5016929;28;20420;-89
2022/11/21 08:12:37;;;;;;;11.80;7.73;;;;;;;;;;5015452;28;20906;-88
2022/11/21 08:15:03;;;;;;;14.23;10.37;;;;;;;;;;5016363;28;20499;-89
2022/11/21 08:17:29;;;;;;;10.87;7.70;;;;;;;;;;5016510;28;20406;-82
2022/11/21 08:19:57;;;;;;;12.03;6.37;;;;;;;;;;5016555;28;20421;-90
2022/11/21 08:22:23;;;;;;;9.80;7.60;;;;;;;;;;5016497;28;20418;-82
2022/11/21 08:24:49;;;;;;;11.13;8.50;;;;;;;;;;4998573;28;20823;-83
2022/11/21 08:27:19;;;;;;;13.30;8.90;;;;;;;;;;5015903;28;20410;-86
2022/11/21 08:29:45;;;;;;;13.60;8.37;;;;;;;;;;5015855;28;20471;-89
2022/11/21 08:32:11;;;;;;;13.43;8.37;;;;;;;;;;5016799;28;20438;-90
2022/11/21 08:34:37;;;;;;;12.27;9.13;;;;;;;;;;5015962;28;20412;-90
2022/11/21 08:37:03;;;;;;;14.43;8.30;;;;;;;;;;5016361;28;20433;-90
2022/11/21 08:39:29;;;;;;;13.23;9.53;;;;;;;;;;5016625;28;20976;-91
2022/11/21 08:42:02;;;;;;;12.87;10.00;;;;;;;;;;5018591;28;20423;-91
2022/11/21 08:44:28;;;;;;;14.70;7.77;;;;;;;;;;5018019;28;20466;-90
2022/11/21 08:46:55;;;;;;;13.60;8.27;;;;;;;;;;4998457;28;20499;-88
2022/11/21 08:49:21;;;;;;;12.57;7.30;;;;;;;;;;5016251;28;20875;-92
2022/11/21 08:51:49;;;;;;;15.50;8.50;;;;;;;;;;4999005;28;20410;-90
2022/11/21 08:54:16;;;;;;;14.03;7.33;;;;;;;;;;5016126;28;20403;-90
2022/11/21 08:56:43;;;;;;;10.80;7.40;;;;;;;;;;5016347;28;20436;-90
2022/11/21 08:59:09;;;;;;;14.80;9.20;;;;;;;;;;5016182;28;20827;-90
2022/11/21 09:01:35;;;;;;;13.33;7.03;;;;;;;;;;5015710;28;20412;-90
2022/11/21 09:04:00;;;;;;;16.37;7.20;;;;;;;;;;5016131;28;20967;-89
2022/11/21 09:06:26;;;;;;;12.97;6.70;;;;;;;;;;5015870;28;20410;-90
2022/11/21 09:08:52;;;;;;;13.60;8.80;;;;;;;;;;5015557;28;20426;-89
2022/11/21 09:11:18;;;;;;;11.63;7.60;;;;;;;;;;5015374;28;20432;-90
2022/11/21 09:18:01;;;;;;;12.07;7.77;;;;;;;;;;5015416;28;20414;-89
2022/11/21 09:19:15;;;;;;;13.80;7.60;;;;;;;;;;5013429;28;20397;-89
2022/11/21 09:21:41;;;;;;;15.20;9.17;;;;;;;;;;4996090;28;20408;-89
2022/11/21 09:24:07;;;;;;;12.60;8.27;;;;;;;;;;4995532;28;20466;-90
2022/11/21 09:26:32;;;;;;;13.17;6.87;;;;;;;;;;4995817;28;20499;-90
2022/11/21 09:28:58;;;;;;;15.97;9.70;;;;;;;;;;4996073;28;20408;-90
2022/11/21 09:31:24;;;;;;;11.90;8.90;;;;;;;;;;4995487;28;20399;-90
2022/11/21 09:33:50;;;;;;;16.20;9.40;;;;;;;;;;4995970;28;20418;-89
2022/11/21 09:36:16;;;;;;;13.03;8.07;;;;;;;;;;4978504;28;20419;-90
2022/11/21 09:38:42;;;;;;;12.93;8.97;;;;;;;;;;4995864;28;20422;-88
2022/11/21 09:44:08;;;;;;;13.67;8.40;;;;;;;;;;4995769;28;20513;-90
2022/11/21 09:46:36;;;;;;;11.47;7.97;;;;;;;;;;4995500;28;20403;-89
2022/11/21 09:49:05;;;;;;;13.77;7.57;;;;;;;;;;4978036;28;20431;-90
2022/11/21 09:51:31;;;;;;;13.40;7.97;;;;;;;;;;4995411;28;20415;-89
2022/11/21 09:54:01;;;;;;;13.10;9.67;;;;;;;;;;4995456;28;20421;-92
2022/11/21 09:56:29;;;;;;;12.40;6.67;;;;;;;;;;4995528;28;20973;-90
2022/11/21 09:59:04;;;;;;;12.10;8.57;;;;;;;;;;4995288;28;20415;-90
2022/11/21 10:01:30;;;;;;;8.63;7.17;;;;;;;;;;4977870;28;20938;-88
2022/11/21 10:03:56;;;;;;;13.57;8.47;;;;;;;;;;4995095;28;20462;-91
2022/11/21 10:06:24;;;;;;;18.07;10.67;;;;;;;;;;4995273;28;20407;-89
2022/11/21 10:09:09;;;;;;;12.80;9.43;;;;;;;;;;4977826;28;20924;-89
2022/11/21 10:14:48;;;;;;;16.00;8.63;;;;;;;;;;4994877;28;20383;-89
2022/11/21 10:17:23;;;;;;;16.03;9.00;;;;;;;;;;4994983;28;20406;-89
2022/11/21 10:19:55;;;;;;;14.53;8.70;;;;;;;;;;4994871;28;20406;-83
2022/11/21 10:22:43;;;;;;;13.70;7.67;;;;;;;;;;4994509;28;20411;-90
2022/11/21 10:25:16;;;;;;;13.23;8.00;;;;;;;;;;4994665;28;20505;-90
2022/11/21 10:28:01;;;;;;;17.67;9.63;;;;;;;;;;4994680;28;20408;-89
2022/11/21 10:30:28;;;;;;;12.30;6.53;;;;;;;;;;4976770;28;20918;-88
2022/11/21 10:32:56;;;;;;;16.77;8.43;;;;;;;;;;4996205;28;20417;-90
2022/11/21 10:35:29;;;;;;;16.53;8.17;;;;;;;;;;4993484;28;20425;-83
2022/11/21 10:38:02;;;;;;;14.33;9.00;;;;;;;;;;4994438;28;20764;-85
2022/11/21 10:40:48;;;;;;;12.93;8.03;;;;;;;;;;4976903;28;20835;-86
2022/11/21 10:46:12;;;;;;;17.53;9.07;;;;;;;;;;4993998;28;20454;-90
2022/11/21 10:48:37;;;;;;;15.80;9.63;;;;;;;;;;4994044;28;20417;-84
2022/11/21 10:51:13;;;;;;;16.53;10.13;;;;;;;;;;4993991;28;20415;-83
2022/11/21 10:56:25;;;;;;;15.70;8.23;;;;;;;;;;4994614;28;20416;-83
2022/11/21 10:58:52;;;;;;;12.27;8.23;;;;;;;;;;4994147;28;20472;-91
2022/11/21 11:01:19;;;;;;;12.93;8.30;;;;;;;;;;4993725;28;20419;-83
2022/11/21 11:03:45;;;;;;;9.97;6.77;;;;;;;;;;4994000;28;20499;-90
2022/11/21 11:06:11;;;;;;;11.50;7.70;;;;;;;;;;4976742;28;20458;-91
2022/11/21 11:08:51;;;;;;;9.43;5.83;;;;;;;;;;4994073;28;20415;-91
2022/11/21 11:11:20;;;;;;;9.13;7.57;;;;;;;;;;4993955;28;20466;-88
2022/11/21 11:14:05;;;;;;;12.60;8.33;;;;;;;;;;4994114;28;20391;-86
2022/11/21 11:16:32;;;;;;;11.07;6.77;;;;;;;;;;4993271;28;20416;-83
2022/11/21 11:18:59;;;;;;;9.17;5.90;;;;;;;;;;4993362;28;20422;-83
2022/11/21 11:21:27;;;;;;;9.10;6.60;;;;;;;;;;4993700;28;20511;-83
2022/11/21 11:23:54;;;;;;;8.13;5.80;;;;;;;;;;4993413;28;20475;-82
2022/11/21 11:26:27;;;;;;;9.63;6.20;;;;;;;;;;4993383;28;20422;-89
2022/11/21 11:29:04;;;;;;;8.70;6.07;;;;;;;;;;4993402;28;20412;-82
2022/11/21 11:31:39;;;;;;;12.17;6.43;;;;;;;;;;4993705;28;20407;-84
2022/11/21 11:34:05;;;;;;;8.13;4.93;;;;;;;;;;4993994;28;20863;-90
2022/11/21 11:36:38;;;;;;;7.50;5.90;;;;;;;;;;4993567;28;20406;-89
2022/11/21 11:39:30;;;;;;;11.50;6.60;;;;;;;;;;4993526;28;20422;-83
2022/11/21 11:47:55;;;;;;;7.53;5.43;;;;;;;;;;4997294;28;20509;-90
2022/11/21 11:50:23;;;;;;;8.03;5.47;;;;;;;;;;4997164;28;20439;-90
2022/11/21 11:53:08;;;;;;;8.10;6.00;;;;;;;;;;4997300;28;20812;-91
2022/11/21 11:55:41;;;;;;;10.23;4.70;;;;;;;;;;4998339;28;20431;-88
2022/11/21 11:58:13;;;;;;;12.97;6.83;;;;;;;;;;4998433;28;20419;-84
2022/11/21 12:00:45;;;;;;;10.47;6.57;;;;;;;;;;4997346;28;20402;-89
2022/11/21 12:03:23;;;;;;;9.90;5.80;;;;;;;;;;4997877;28;20834;-91
2022/11/21 12:06:18;;;;;;;11.27;5.70;;;;;;;;;;4997633;28;20465;-90
2022/11/21 12:08:54;;;;;;;8.10;4.43;;;;;;;;;;4976848;28;20443;-91
2022/11/21 12:15:47;;;;;;;8.30;5.57;;;;;;;;;;4996731;28;20421;-91
2022/11/21 12:17:01;;;;;;;7.80;4.80;;;;;;;;;;4996992;28;20423;-90
2022/11/21 12:19:27;;;;;;;10.90;6.80;;;;;;;;;;4997223;28;20470;-90
2022/11/21 12:21:53;;;;;;;8.50;5.63;;;;;;;;;;4996967;28;20414;-89
2022/11/21 12:24:21;;;;;;;9.30;5.67;;;;;;;;;;4996860;28;20474;-90
2022/11/21 12:27:00;;;;;;;7.50;4.60;;;;;;;;;;4996930;28;20403;-90
2022/11/21 12:29:48;;;;;;;9.20;4.97;;;;;;;;;;4996225;28;20502;-89
2022/11/21 12:32:33;;;;;;;9.30;5.10;;;;;;;;;;4995778;28;20415;-85
2022/11/21 12:35:17;;;;;;;7.13;4.03;;;;;;;;;;4995891;28;20416;-86
2022/11/21 12:37:55;;;;;;;9.10;4.57;;;;;;;;;;4978635;28;20426;-82
2022/11/21 12:40:40;;;;;;;7.57;5.43;;;;;;;;;;4995758;28;20474;-83
2022/11/21 12:43:18;;;;;;;10.13;5.30;;;;;;;;;;4995846;28;20501;-85
2022/11/21 12:45:44;;;;;;;6.37;3.63;;;;;;;;;;4995675;28;20418;-84
2022/11/21 12:57:08;;;;;;;7.33;4.20;;;;;;;;;;4995634;28;20402;-84
2022/11/21 12:59:39;;;;;;;8.03;4.20;;;;;;;;;;4995193;28;20423;-82
2022/11/21 13:02:16;;;;;;;7.70;3.80;;;;;;;;;;4995499;28;20805;-82
2022/11/21 13:04:43;;;;;;;8.73;4.60;;;;;;;;;;4995237;28;20475;-84
2022/11/21 13:07:09;;;;;;;7.07;2.43;;;;;;;;;;4995148;28;20413;-82
2022/11/21 13:09:41;;;;;;;8.90;4.30;;;;;;;;;;4995351;28;20481;-83
2022/11/21 13:12:07;;;;;;;6.23;3.10;;;;;;;;;;4995067;28;20926;-83
2022/11/21 13:14:51;;;;;;;6.23;3.67;;;;;;;;;;4977203;28;20456;-82
2022/11/21 13:17:26;;;;;;;5.80;2.70;;;;;;;;;;4994998;28;20765;-82
2022/11/21 13:19:58;;;;;;;8.93;3.23;;;;;;;;;;4977743;28;20423;-82
2022/11/21 13:22:36;;;;;;;9.63;3.90;;;;;;;;;;4994949;28;20460;-84
2022/11/21 13:25:03;;;;;;;3.87;3.10;;;;;;;;;;4994879;28;20471;-84
2022/11/21 13:27:35;;;;;;;4.53;2.97;;;;;;;;;;4994783;28;20817;-86
2022/11/21 13:30:10;;;;;;;8.03;3.80;;;;;;;;;;4994547;28;20415;-82
2022/11/21 13:32:54;;;;;;;6.27;4.13;;;;;;;;;;4994827;28;20962;-84
2022/11/21 13:35:20;;;;;;;7.40;4.10;;;;;;;;;;4994586;28;20419;-84
2022/11/21 13:37:49;;;;;;;6.17;3.30;;;;;;;;;;4977575;28;20426;-90
2022/11/21 13:40:30;;;;;;;5.87;3.73;;;;;;;;;;4996154;28;20479;-82
2022/11/21 13:43:09;;;;;;;6.30;2.57;;;;;;;;;;4982426;28;20415;-82
2022/11/21 13:45:45;;;;;;;8.00;3.67;;;;;;;;;;4983920;28;20437;-82
2022/11/21 13:48:20;;;;;;;7.00;4.30;;;;;;;;;;4973154;28;20425;-81
2022/11/21 13:50:52;;;;;;;8.07;3.40;;;;;;;;;;4993184;28;20773;-81
2022/11/21 13:53:36;;;;;;;3.87;2.97;;;;;;;;;;4992958;28;20475;-82
2022/11/21 13:56:07;;;;;;;6.30;3.43;;;;;;;;;;4993587;28;20421;-86
2022/11/21 13:58:49;;;;;;;6.60;4.00;;;;;;;;;;4993793;28;20526;-82
2022/11/21 14:01:27;;;;;;;9.53;3.97;;;;;;;;;;4993729;28;20935;-86
2022/11/21 14:03:59;;;;;;;5.50;3.20;;;;;;;;;;4993927;28;20486;-83
2022/11/21 14:06:36;;;;;;;7.10;4.33;;;;;;;;;;4976261;28;20781;-86
2022/11/21 14:09:07;;;;;;;6.07;3.27;;;;;;;;;;4991848;28;20906;-82
2022/11/21 14:11:41;;;;;;;7.00;3.40;;;;;;;;;;4993004;28;20413;-82
2022/11/21 14:14:08;;;;;;;6.20;4.60;;;;;;;;;;4993335;28;20820;-86
2022/11/21 14:16:36;;;;;;;9.13;3.80;;;;;;;;;;4976503;28;20477;-86
2022/11/21 14:19:02;;;;;;;4.63;3.20;;;;;;;;;;4976614;28;20943;-86
2022/11/21 14:21:29;;;;;;;6.70;4.50;;;;;;;;;;4993962;28;20411;-87
2022/11/21 14:23:56;;;;;;;6.23;3.30;;;;;;;;;;4976492;28;20480;-86
2022/11/21 14:26:24;;;;;;;4.10;3.23;;;;;;;;;;4976531;28;20569;-86
2022/11/21 14:28:50;;;;;;;6.73;2.80;;;;;;;;;;4993765;28;20423;-86
2022/11/21 14:31:16;;;;;;;8.03;4.03;;;;;;;;;;4976524;28;20480;-86
2022/11/21 14:33:43;;;;;;;7.30;3.40;;;;;;;;;;4976862;28;20837;-85
2022/11/21 14:36:12;;;;;;;4.37;2.40;;;;;;;;;;4976877;28;20785;-86
2022/11/21 14:38:47;;;;;;;7.57;3.60;;;;;;;;;;4976973;28;20426;-86
2022/11/21 14:41:25;;;;;;;3.90;2.93;;;;;;;;;;4976523;28;20473;-86
2022/11/21 14:43:57;;;;;;;7.70;3.77;;;;;;;;;;4993877;28;20471;-86
2022/11/21 14:46:24;;;;;;;9.00;4.33;;;;;;;;;;4977030;28;20434;-86
2022/11/21 14:48:53;;;;;;;4.80;3.23;;;;;;;;;;4994311;28;20406;-86
2022/11/21 14:51:21;;;;;;;8.07;3.50;;;;;;;;;;4994277;28;20406;-86
2022/11/21 14:53:48;;;;;;;6.50;4.73;;;;;;;;;;4994168;28;20434;-86
2022/11/21 14:56:20;;;;;;;6.40;3.90;;;;;;;;;;4983589;28;20451;-94
2022/11/21 14:58:47;;;;;;;5.53;3.07;;;;;;;;;;4972392;28;20504;-89
2022/11/21 15:01:20;;;;;;;6.40;4.33;;;;;;;;;;4978259;28;20420;-87
2022/11/21 15:04:03;;;;;;;6.20;3.60;;;;;;;;;;4965576;28;20524;-92
2022/11/21 15:06:32;;;;;;;6.17;3.17;;;;;;;;;;4964462;28;20423;-91
2022/11/21 15:08:58;;;;;;;6.87;4.30;;;;;;;;;;4982163;28;20768;-93
2022/11/21 15:11:43;;;;;;;4.93;3.57;;;;;;;;;;4984116;28;20433;-92
2022/11/21 15:14:42;;;;;;;6.20;3.90;;;;;;;;;;4983137;28;20424;-92
2022/11/21 15:17:10;;;;;;;7.97;2.83;;;;;;;;;;4941767;28;20418;-93
2022/11/21 15:19:36;;;;;;;6.00;3.80;;;;;;;;;;4986069;28;20409;-90